createdAt,value
2022-11-04T00:01:52.814Z,7.40
2022-11-04T00:04:44.672Z,7.35
2022-11-04T00:07:34.182Z,7.38
2022-11-04T00:10:01.013Z,7.37
2022-11-04T00:12:37.947Z,7.39
2022-11-04T00:15:23.283Z,7.37
2022-11-04T00:17:50.155Z,7.32
2022-11-04T00:20:35.755Z,7.31
2022-11-04T00:23:58.978Z,7.29
2022-11-04T00:26:44.081Z,7.32
2022-11-04T00:29:10.892Z,7.26
2022-11-04T00:31:56.038Z,7.26
2022-11-04T00:34:23.023Z,7.25
2022-11-04T00:36:49.897Z,7.24
2022-11-04T00:39:16.665Z,7.24
2022-11-04T00:41:43.613Z,7.22
2022-11-04T00:44:10.615Z,7.14
2022-11-04T00:46:37.456Z,7.13
2022-11-04T00:49:04.386Z,7.12
2022-11-04T00:51:31.963Z,7.15
2022-11-04T00:53:59.032Z,7.15
2022-11-04T00:56:26.087Z,7.14
2022-11-04T00:58:52.884Z,7.14
2022-11-04T01:01:20.438Z,7.15
2022-11-04T01:03:52.329Z,7.20
2022-11-04T01:06:20.064Z,7.20
2022-11-04T01:08:46.946Z,7.20
2022-11-04T01:11:14.258Z,7.21
2022-11-04T01:13:41.732Z,7.23
2022-11-04T01:16:09.738Z,7.26
2022-11-04T01:18:36.831Z,7.30
2022-11-04T01:21:16.975Z,7.30
2022-11-04T01:23:47.421Z,7.36
2022-11-04T01:26:19.492Z,7.40
2022-11-04T01:28:46.847Z,7.43
2022-11-04T01:31:15.261Z,7.43
2022-11-04T01:33:42.170Z,7.42
2022-11-04T01:36:34.458Z,7.41
2022-11-04T01:39:01.294Z,7.46
2022-11-04T01:41:29.649Z,7.54
2022-11-04T01:43:58.298Z,7.63
2022-11-04T01:46:31.535Z,7.67
2022-11-04T01:49:02.052Z,7.69
2022-11-04T01:51:31.212Z,7.71
2022-11-04T01:53:58.322Z,7.73
2022-11-04T01:56:26.942Z,7.66
2022-11-04T01:58:57.498Z,7.68
2022-11-04T02:01:24.655Z,7.84
2022-11-04T02:03:56.590Z,7.79
2022-11-04T02:06:23.501Z,7.73
2022-11-04T02:08:50.536Z,7.73
2022-11-04T02:11:35.989Z,7.73
2022-11-04T02:14:02.940Z,7.79
2022-11-04T02:16:32.935Z,7.84
2022-11-04T02:19:17.196Z,7.87
2022-11-04T02:21:57.376Z,7.88
2022-11-04T02:24:36.609Z,7.85
2022-11-04T02:27:29.468Z,7.80
2022-11-04T02:30:03.692Z,7.84
2022-11-04T02:32:30.503Z,7.74
2022-11-04T02:34:57.405Z,7.71
2022-11-04T02:37:38.653Z,7.69
2022-11-04T02:40:05.477Z,7.70
2022-11-04T02:42:35.070Z,7.69
2022-11-04T02:45:19.968Z,7.70
2022-11-04T02:47:51.124Z,7.70
2022-11-04T02:50:20.976Z,7.62
2022-11-04T02:52:54.271Z,7.60
2022-11-04T02:55:44.457Z,7.59
2022-11-04T02:58:16.630Z,7.56
2022-11-04T03:00:44.278Z,7.51
2022-11-04T03:03:16.643Z,7.49
2022-11-04T03:05:46.467Z,7.48
2022-11-04T03:08:20.907Z,7.47
2022-11-04T03:10:52.728Z,7.42
2022-11-04T03:13:23.177Z,7.38
2022-11-04T03:15:53.436Z,7.39
2022-11-04T03:18:38.763Z,7.32
2022-11-04T03:21:09.347Z,7.33
2022-11-04T03:23:36.322Z,7.31
2022-11-04T03:26:09.576Z,7.29
2022-11-04T03:28:36.537Z,7.29
2022-11-04T03:31:04.943Z,7.20
2022-11-04T03:33:49.150Z,7.16
2022-11-04T03:36:16.411Z,7.17
2022-11-04T03:38:43.446Z,7.19
2022-11-04T03:41:27.757Z,7.12
2022-11-04T03:43:54.657Z,7.11
2022-11-04T03:46:22.875Z,7.14
2022-11-04T03:48:51.818Z,7.12
2022-11-04T03:51:18.648Z,7.08
2022-11-04T03:53:45.514Z,7.08
2022-11-04T03:56:44.853Z,7.07
2022-11-04T03:59:14.442Z,7.10
2022-11-04T04:01:51.058Z,7.03
2022-11-04T04:04:17.889Z,7.00
2022-11-04T04:06:46.461Z,6.94
2022-11-04T04:09:21.509Z,6.97
2022-11-04T04:11:48.380Z,6.97
2022-11-04T04:14:41.860Z,6.89
2022-11-04T04:17:15.056Z,6.84
2022-11-04T04:19:48.276Z,6.82
2022-11-04T04:22:18.828Z,6.78
2022-11-04T04:25:06.350Z,6.74
2022-11-04T04:27:34.456Z,6.72
2022-11-04T04:30:12.546Z,6.71
2022-11-04T04:32:45.122Z,6.69
2022-11-04T04:35:31.357Z,6.71
2022-11-04T04:38:20.393Z,6.71
2022-11-04T04:41:29.034Z,6.69
2022-11-04T04:44:14.788Z,6.70
2022-11-04T04:46:43.703Z,6.68
2022-11-04T04:49:10.876Z,6.66
2022-11-04T04:51:43.341Z,6.65
2022-11-04T04:54:10.716Z,6.67
2022-11-04T04:56:37.810Z,6.67
2022-11-04T04:59:04.710Z,6.67
2022-11-04T05:01:34.731Z,6.63
2022-11-04T05:04:01.737Z,6.60
2022-11-04T05:06:28.536Z,6.60
2022-11-04T05:09:00.436Z,6.60
2022-11-04T05:11:27.509Z,6.65
2022-11-04T05:14:02.436Z,6.63
2022-11-04T05:16:29.568Z,6.60
2022-11-04T05:18:56.638Z,6.52
2022-11-04T05:21:23.702Z,6.55
2022-11-04T05:23:50.675Z,6.52
2022-11-04T05:26:17.966Z,6.57
2022-11-04T05:28:45.152Z,6.61
2022-11-04T05:31:12.054Z,6.66
2022-11-04T05:33:39.108Z,6.69
2022-11-04T05:36:09.533Z,6.73
2022-11-04T05:38:36.942Z,6.75
2022-11-04T05:41:04.721Z,6.82
2022-11-04T05:43:31.699Z,6.81
2022-11-04T05:46:01.798Z,6.87
2022-11-04T05:48:28.673Z,6.95
2022-11-04T05:50:55.908Z,6.93
2022-11-04T05:53:22.814Z,6.98
2022-11-04T05:55:50.025Z,6.97
2022-11-04T05:58:16.769Z,7.05
2022-11-04T06:00:43.490Z,7.12
2022-11-04T06:03:13.558Z,7.18
2022-11-04T06:05:43.031Z,7.21
2022-11-04T06:08:10.177Z,7.30
2022-11-04T06:10:37.250Z,7.36
2022-11-04T06:13:04.357Z,7.44
2022-11-04T06:15:31.106Z,7.55
2022-11-04T06:17:57.911Z,7.63
2022-11-04T06:20:25.101Z,7.72
2022-11-04T06:22:51.849Z,7.80
2022-11-04T06:25:18.652Z,7.90
2022-11-04T06:27:45.467Z,8.03
2022-11-04T06:30:13.096Z,8.16
2022-11-04T06:32:39.852Z,8.30
2022-11-04T06:35:09.186Z,8.50
2022-11-04T06:37:36.303Z,8.64
2022-11-04T06:40:03.118Z,8.86
2022-11-04T06:42:29.877Z,9.06
2022-11-04T06:44:56.651Z,9.32
2022-11-04T06:47:24.994Z,9.52
2022-11-04T06:49:52.016Z,9.73
2022-11-04T06:52:18.840Z,9.98
2022-11-04T06:57:27.229Z,10.51
2022-11-04T06:59:54.194Z,10.80
2022-11-04T07:02:21.339Z,11.08
2022-11-04T07:04:48.345Z,11.41
2022-11-04T07:07:15.162Z,11.74
2022-11-04T07:09:42.108Z,12.05
2022-11-04T07:12:09.102Z,12.30
2022-11-04T07:14:36.047Z,12.58
2022-11-04T07:17:02.822Z,12.90
2022-11-04T07:19:29.723Z,13.24
2022-11-04T07:21:56.789Z,13.66
2022-11-04T07:24:23.767Z,13.96
2022-11-04T07:26:50.641Z,14.30
2022-11-04T07:29:17.590Z,14.59
2022-11-04T07:31:44.498Z,14.95
2022-11-04T07:34:11.243Z,15.19
2022-11-04T07:36:38.602Z,15.58
2022-11-04T07:39:06.968Z,15.93
2022-11-04T07:41:34.270Z,16.26
2022-11-04T07:44:02.922Z,16.58
2022-11-04T07:46:29.714Z,16.83
2022-11-04T07:48:58.167Z,17.04
2022-11-04T07:51:26.033Z,17.29
2022-11-04T07:53:53.361Z,17.49
2022-11-04T07:56:20.253Z,17.69
2022-11-04T07:58:47.166Z,17.88
2022-11-04T08:01:16.376Z,18.07
2022-11-04T08:03:43.386Z,18.18
2022-11-04T08:06:12.166Z,18.29
2022-11-04T08:08:39.112Z,18.41
2022-11-04T08:11:10.388Z,18.55
2022-11-04T08:13:39.818Z,18.69
2022-11-04T08:16:09.772Z,18.93
2022-11-04T08:18:36.608Z,19.02
2022-11-04T08:21:04.625Z,19.11
2022-11-04T08:23:32.353Z,19.25
2022-11-04T08:25:59.184Z,19.19
2022-11-04T08:28:26.508Z,19.16
2022-11-04T08:30:54.508Z,19.23
2022-11-04T08:33:21.543Z,19.30
2022-11-04T08:35:48.596Z,19.39
2022-11-04T08:38:16.286Z,19.50
2022-11-04T08:40:43.470Z,19.70
2022-11-04T08:43:10.652Z,19.69
2022-11-04T08:45:42.297Z,19.75
2022-11-04T08:48:09.488Z,19.79
2022-11-04T08:50:36.566Z,19.90
2022-11-04T08:53:04.393Z,19.96
2022-11-04T08:55:31.660Z,20.03
2022-11-04T08:57:59.675Z,20.08
2022-11-04T09:00:27.180Z,20.15
2022-11-04T09:02:55.791Z,20.15
2022-11-04T09:05:23.081Z,20.28
2022-11-04T09:07:50.118Z,20.27
2022-11-04T09:10:17.608Z,20.31
2022-11-04T09:12:45.500Z,20.37
2022-11-04T09:15:13.676Z,20.38
2022-11-04T09:17:40.765Z,20.42
2022-11-04T09:20:07.766Z,20.54
2022-11-04T09:22:34.561Z,20.53
2022-11-04T09:25:01.440Z,20.53
2022-11-04T09:27:28.384Z,20.59
2022-11-04T09:29:55.155Z,20.56
2022-11-04T09:32:22.136Z,20.61
2022-11-04T09:34:48.924Z,20.67
2022-11-04T09:37:16.329Z,20.82
2022-11-04T09:39:43.200Z,20.93
2022-11-04T09:42:16.087Z,20.69
2022-11-04T09:45:20.218Z,20.71
2022-11-04T09:47:41.032Z,20.82
2022-11-04T09:50:11.607Z,20.88
2022-11-04T09:52:42.229Z,20.90
2022-11-04T09:55:18.256Z,20.92
2022-11-04T09:57:55.370Z,21.05
2022-11-04T10:00:22.370Z,21.08
2022-11-04T10:03:06.918Z,21.13
2022-11-04T10:05:49.554Z,21.29
2022-11-04T10:08:19.388Z,21.43
2022-11-04T10:11:05.812Z,21.49
2022-11-04T10:13:41.835Z,21.50
2022-11-04T10:16:08.597Z,21.58
2022-11-04T10:18:50.515Z,21.60
2022-11-04T10:21:31.911Z,21.63
2022-11-04T10:23:58.617Z,21.75
2022-11-04T10:26:31.377Z,21.74
2022-11-04T10:29:01.725Z,21.72
2022-11-04T10:31:28.662Z,21.77
2022-11-04T10:33:57.629Z,21.76
2022-11-04T10:36:25.507Z,21.77
2022-11-04T10:38:56.534Z,21.80
2022-11-04T10:41:23.284Z,21.76
2022-11-04T10:43:54.176Z,21.87
2022-11-04T10:46:38.886Z,21.87
2022-11-04T10:49:08.836Z,21.87
2022-11-04T10:51:35.741Z,21.96
2022-11-04T10:54:03.622Z,22.01
2022-11-04T10:56:33.464Z,22.01
2022-11-04T10:59:20.875Z,22.03
2022-11-04T11:01:54.437Z,21.90
2022-11-04T11:04:33.727Z,21.96
2022-11-04T11:07:02.375Z,22.02
2022-11-04T11:09:30.824Z,22.00
2022-11-04T11:12:29.532Z,22.08
2022-11-04T11:14:53.495Z,22.19
2022-11-04T11:17:25.072Z,22.26
2022-11-04T11:19:56.632Z,22.21
2022-11-04T11:22:34.152Z,22.10
2022-11-04T11:25:19.496Z,21.98
2022-11-04T11:27:49.196Z,21.98
2022-11-04T11:30:20.317Z,22.01
2022-11-04T11:32:53.644Z,22.01
2022-11-04T11:35:22.804Z,22.07
2022-11-04T11:37:50.015Z,22.11
2022-11-04T11:40:27.595Z,22.09
2022-11-04T11:42:54.897Z,21.97
2022-11-04T11:45:23.868Z,21.88
2022-11-04T11:47:55.113Z,21.88
2022-11-04T11:50:36.027Z,21.87
2022-11-04T11:53:24.675Z,21.95
2022-11-04T11:56:00.013Z,21.97
2022-11-04T12:01:25.786Z,22.15
2022-11-04T12:09:47.245Z,22.32
2022-11-04T12:12:14.011Z,22.30
2022-11-04T12:14:53.367Z,22.26
2022-11-04T12:17:28.207Z,22.31
2022-11-04T12:20:14.972Z,22.36
2022-11-04T12:22:55.690Z,22.37
2022-11-04T12:25:41.607Z,22.34
2022-11-04T12:28:09.258Z,22.14
2022-11-04T12:30:44.775Z,22.30
2022-11-04T12:33:12.167Z,22.42
2022-11-04T12:35:51.368Z,22.38
2022-11-04T12:38:18.089Z,22.27
2022-11-04T12:41:05.076Z,22.15
2022-11-04T12:43:58.051Z,22.19
2022-11-04T12:46:40.552Z,22.06
2022-11-04T12:49:19.242Z,21.95
2022-11-04T12:51:45.979Z,21.99
2022-11-04T12:54:26.015Z,22.03
2022-11-04T12:57:11.647Z,22.07
2022-11-04T12:59:46.637Z,22.13
2022-11-04T13:02:17.196Z,22.30
2022-11-04T13:04:53.338Z,22.34
2022-11-04T13:07:23.495Z,22.32
2022-11-04T13:09:55.118Z,22.20
2022-11-04T13:12:23.906Z,22.09
2022-11-04T13:14:53.987Z,22.07
2022-11-04T13:17:25.945Z,22.01
2022-11-04T13:19:55.190Z,21.88
2022-11-04T13:22:27.495Z,21.77
2022-11-04T13:24:57.386Z,21.78
2022-11-04T13:27:26.896Z,21.75
2022-11-04T13:30:03.796Z,21.57
2022-11-04T13:32:35.812Z,21.48
2022-11-04T13:35:05.654Z,21.43
2022-11-04T13:37:32.547Z,21.32
2022-11-04T13:40:25.231Z,21.17
2022-11-04T13:43:26.194Z,21.08
2022-11-04T13:45:54.598Z,20.97
2022-11-04T13:48:24.635Z,20.91
2022-11-04T13:51:06.529Z,20.82
2022-11-04T13:53:51.787Z,20.80
2022-11-04T13:56:33.850Z,20.55
2022-11-04T13:59:04.275Z,20.51
2022-11-04T14:01:32.442Z,20.42
2022-11-04T14:04:14.674Z,20.38
2022-11-04T14:06:49.211Z,20.34
2022-11-04T14:09:35.727Z,20.26
2022-11-04T14:12:11.737Z,20.22
2022-11-04T14:14:39.479Z,20.16
2022-11-04T14:17:26.109Z,20.07
2022-11-04T14:19:56.428Z,19.94
2022-11-04T14:22:27.478Z,19.75
2022-11-04T14:24:55.940Z,19.72
2022-11-04T14:27:30.807Z,19.60
2022-11-04T14:30:01.525Z,19.49
2022-11-04T14:32:31.908Z,19.37
2022-11-04T14:35:01.245Z,19.32
2022-11-04T14:37:31.138Z,19.21
2022-11-04T14:40:02.766Z,19.02
2022-11-04T14:42:48.147Z,18.95
2022-11-04T14:45:35.291Z,18.69
2022-11-04T14:48:15.660Z,18.52
2022-11-04T14:50:45.715Z,18.36
2022-11-04T14:53:19.448Z,18.23
2022-11-04T14:55:46.200Z,18.04
2022-11-04T14:58:24.518Z,17.84
2022-11-04T15:00:54.198Z,17.70
2022-11-04T15:06:11.765Z,17.48
2022-11-04T15:08:41.590Z,17.36
2022-11-04T15:11:16.980Z,17.20
2022-11-04T15:13:46.171Z,17.05
2022-11-04T15:16:21.500Z,16.97
2022-11-04T15:18:48.718Z,16.87
2022-11-04T15:21:15.741Z,16.79
2022-11-04T15:23:42.516Z,16.68
2022-11-04T15:26:23.815Z,16.49
2022-11-04T15:28:54.378Z,16.39
2022-11-04T15:31:26.050Z,16.35
2022-11-04T15:33:54.459Z,16.17
2022-11-04T15:36:25.142Z,16.10
2022-11-04T15:38:54.706Z,15.93
2022-11-04T15:41:41.094Z,15.84
2022-11-04T15:44:15.661Z,15.71
2022-11-04T15:46:47.742Z,15.52
2022-11-04T15:49:21.201Z,15.39
2022-11-04T15:51:48.629Z,15.27
2022-11-04T15:54:29.898Z,15.26
2022-11-04T15:57:01.240Z,15.09
2022-11-04T15:59:35.784Z,14.93
2022-11-04T16:02:03.797Z,14.78
2022-11-04T16:04:31.038Z,14.71
2022-11-04T16:07:10.220Z,14.54
2022-11-04T16:09:47.587Z,14.42
2022-11-04T16:12:16.592Z,14.22
2022-11-04T16:14:51.212Z,14.16
2022-11-04T16:17:18.448Z,14.01
2022-11-04T16:19:49.906Z,13.93
2022-11-04T16:22:22.088Z,13.80
2022-11-04T16:24:50.503Z,13.67
2022-11-04T16:27:19.800Z,13.57
2022-11-04T16:29:52.404Z,13.56
2022-11-04T16:32:24.476Z,13.52
2022-11-04T16:34:52.861Z,13.39
2022-11-04T16:37:19.886Z,13.38
2022-11-04T16:39:46.682Z,13.31
2022-11-04T16:42:14.653Z,13.11
2022-11-04T16:44:46.302Z,13.00
2022-11-04T16:47:13.005Z,12.94
2022-11-04T16:49:39.826Z,12.87
2022-11-04T16:52:09.711Z,12.74
2022-11-04T16:54:36.440Z,12.68
2022-11-04T16:57:07.129Z,12.62
2022-11-04T16:59:34.020Z,12.52
2022-11-04T17:02:00.937Z,12.53
2022-11-04T17:04:30.955Z,12.44
2022-11-04T17:06:57.816Z,12.41
2022-11-04T17:09:24.817Z,12.31
2022-11-04T17:11:51.645Z,12.24
2022-11-04T17:14:18.508Z,12.20
2022-11-04T17:16:45.378Z,12.19
2022-11-04T17:19:15.770Z,12.17
2022-11-04T17:21:43.663Z,12.11
2022-11-04T17:24:11.196Z,12.07
2022-11-04T17:26:41.300Z,12.05
2022-11-04T17:29:09.818Z,11.97
2022-11-04T17:31:38.553Z,11.92
2022-11-04T17:34:06.089Z,11.94
2022-11-04T17:36:32.906Z,11.80
2022-11-04T17:38:59.895Z,11.74
2022-11-04T17:41:44.916Z,11.74
2022-11-04T17:44:11.708Z,11.75
2022-11-04T17:46:38.438Z,11.75
2022-11-04T17:49:07.575Z,11.64
2022-11-04T17:51:34.949Z,11.61
2022-11-04T17:54:01.854Z,11.65
2022-11-04T17:56:28.760Z,11.57
2022-11-04T17:58:55.449Z,11.59
2022-11-04T18:01:24.098Z,11.55
2022-11-04T18:03:52.653Z,11.45
2022-11-04T18:06:20.867Z,11.48
2022-11-04T18:08:47.746Z,11.53
2022-11-04T18:11:35.094Z,11.49
2022-11-04T18:14:01.868Z,11.48
2022-11-04T18:16:28.804Z,11.42
2022-11-04T18:18:57.316Z,11.37
2022-11-04T18:21:24.263Z,11.34
2022-11-04T18:23:51.213Z,11.31
2022-11-04T18:26:19.048Z,11.19
2022-11-04T18:28:45.967Z,11.18
2022-11-04T18:31:15.876Z,11.16
2022-11-04T18:33:43.167Z,11.15
2022-11-04T18:36:10.256Z,11.13
2022-11-04T18:38:37.378Z,11.04
2022-11-04T18:41:04.166Z,11.08
2022-11-04T18:43:31.045Z,10.98
2022-11-04T18:45:58.515Z,11.06
2022-11-04T18:48:25.674Z,11.00
2022-11-04T18:50:52.425Z,11.02
2022-11-04T18:53:24.287Z,11.14
2022-11-04T18:55:54.010Z,11.14
2022-11-04T18:58:21.054Z,11.23
2022-11-04T19:00:47.832Z,11.19
2022-11-04T19:03:14.861Z,11.18
2022-11-04T19:05:42.502Z,11.21
2022-11-04T19:08:09.709Z,11.17
2022-11-04T19:11:14.724Z,11.22
2022-11-04T19:13:41.816Z,11.25
2022-11-04T19:16:09.937Z,11.24
2022-11-04T19:18:36.914Z,11.20
2022-11-04T19:21:07.688Z,11.20
2022-11-04T19:23:34.738Z,11.24
2022-11-04T19:26:12.292Z,11.28
2022-11-04T19:28:48.306Z,11.24
2022-11-04T19:31:21.291Z,11.20
2022-11-04T19:33:48.643Z,11.12
2022-11-04T19:36:16.098Z,11.21
2022-11-04T19:38:44.093Z,11.13
2022-11-04T19:41:34.037Z,11.17
2022-11-04T19:44:05.049Z,11.14
2022-11-04T19:46:32.444Z,11.14
2022-11-04T19:48:59.477Z,11.14
2022-11-04T19:51:31.784Z,11.11
2022-11-04T19:53:58.912Z,11.10
2022-11-04T19:56:26.374Z,11.13
2022-11-04T19:58:53.311Z,11.07
2022-11-04T20:01:20.833Z,11.05
2022-11-04T20:03:48.140Z,11.02
2022-11-04T20:06:16.315Z,10.99
2022-11-04T20:08:44.325Z,10.98
2022-11-04T20:11:11.753Z,10.91
2022-11-04T20:13:44.497Z,10.81
2022-11-04T20:16:20.432Z,10.86
2022-11-04T20:18:57.261Z,10.76
2022-11-04T20:21:35.623Z,10.74
2022-11-04T20:24:04.457Z,10.69
2022-11-04T20:26:32.529Z,10.66
2022-11-04T20:29:02.642Z,10.59
2022-11-04T20:31:31.364Z,10.60
2022-11-04T20:33:58.873Z,10.58
2022-11-04T20:36:27.455Z,10.60
2022-11-04T20:39:01.284Z,10.57
2022-11-04T20:41:28.739Z,10.48
2022-11-04T20:43:56.192Z,10.50
2022-11-04T20:46:24.797Z,10.38
2022-11-04T20:48:52.304Z,10.38
2022-11-04T20:51:20.700Z,10.35
2022-11-04T20:53:48.233Z,10.33
2022-11-04T20:56:16.468Z,10.34
2022-11-04T20:58:48.415Z,10.33
2022-11-04T21:01:17.388Z,10.27
2022-11-04T21:03:44.565Z,10.23
2022-11-04T21:06:12.058Z,10.21
2022-11-04T21:08:39.237Z,10.16
2022-11-04T21:11:06.796Z,10.13
2022-11-04T21:13:34.039Z,10.14
2022-11-04T21:16:04.198Z,10.15
2022-11-04T21:18:31.343Z,10.14
2022-11-04T21:20:58.477Z,10.15
2022-11-04T21:23:25.355Z,10.24
2022-11-04T21:25:54.295Z,10.25
2022-11-04T21:28:21.146Z,10.25
2022-11-04T21:30:49.281Z,10.25
2022-11-04T21:33:16.122Z,10.26
2022-11-04T21:35:43.728Z,10.28
2022-11-04T21:38:13.496Z,10.28
2022-11-04T21:40:40.721Z,10.25
2022-11-04T21:43:07.672Z,10.26
2022-11-04T21:45:35.058Z,10.24
2022-11-04T21:48:02.171Z,10.24
2022-11-04T21:50:29.147Z,10.28
2022-11-04T21:52:57.552Z,10.25
2022-11-04T21:55:24.658Z,10.25
2022-11-04T21:57:51.712Z,10.25
2022-11-04T22:00:18.732Z,10.17
2022-11-04T22:02:54.691Z,10.17
2022-11-04T22:05:21.919Z,10.12
2022-11-04T22:08:06.941Z,10.11
2022-11-04T22:10:36.214Z,10.06
2022-11-04T22:13:03.190Z,10.07
2022-11-04T22:15:49.208Z,10.03
2022-11-04T22:18:16.451Z,10.02
2022-11-04T22:20:43.433Z,9.98
2022-11-04T22:23:10.322Z,9.92
2022-11-04T22:25:37.424Z,9.83
2022-11-04T22:28:04.315Z,9.75
2022-11-04T22:30:31.311Z,9.75
2022-11-04T22:32:58.257Z,9.79
2022-11-04T22:35:25.181Z,9.80
2022-11-04T22:37:52.281Z,9.78
2022-11-04T22:40:19.376Z,9.78
2022-11-04T22:42:46.252Z,9.77
2022-11-04T22:45:16.673Z,9.73
2022-11-04T22:47:44.166Z,9.69
2022-11-04T22:50:11.132Z,9.66
2022-11-04T22:52:38.104Z,9.68
2022-11-04T22:55:05.264Z,9.68
2022-11-04T22:57:32.488Z,9.64
2022-11-04T23:00:01.880Z,9.63
2022-11-04T23:02:33.917Z,9.63
2022-11-04T23:05:03.699Z,9.59
2022-11-04T23:07:30.538Z,9.54
2022-11-04T23:10:16.018Z,9.53
2022-11-04T23:13:01.145Z,9.50
2022-11-04T23:15:46.176Z,9.47
2022-11-04T23:18:31.859Z,9.39
2022-11-04T23:21:17.620Z,9.26
2022-11-04T23:24:02.891Z,9.17
2022-11-04T23:26:29.800Z,9.11
2022-11-04T23:29:15.188Z,9.15
2022-11-04T23:31:42.295Z,9.15
2022-11-04T23:34:27.830Z,9.15
2022-11-04T23:37:12.620Z,9.18
2022-11-04T23:39:40.306Z,9.16
2022-11-04T23:42:16.465Z,9.19
2022-11-04T23:45:02.950Z,9.11
2022-11-04T23:47:49.401Z,9.06
2022-11-04T23:50:35.123Z,9.05
2022-11-04T23:53:21.377Z,9.01
2022-11-04T23:56:07.046Z,9.02
2022-11-04T23:58:57.880Z,9.02
